Wetterdaten: Woche 01.12.25 - 07.12.25 (KW49)
Datum Zeit Temp. I. Temp. A. Feuchte I. Feuchte A. Luftdruck Regen Wind Richtung Sonnenschein Solar Taupunkt Windchill Windböen
01.12.2025 00:00 21,8 °C 5,9 °C 55 % 93 % 1016,4 hPa 0,2 l/m² 1,0 km/h (0 Bft) W-SW 0,00 h 0 W/m² 4,8 °C 5,8 °C 2,0 km/h (1 Bft)
01.12.2025 01:00 21,8 °C 5,5 °C 55 % 92 % 1016,7 hPa 0,0 l/m² 1,4 km/h (1 Bft) W-SW 0,00 h 0 W/m² 4,3 °C 5,5 °C 2,8 km/h (1 Bft)
01.12.2025 02:00 21,7 °C 4,6 °C 55 % 90 % 1017,1 hPa 0,0 l/m² 3,1 km/h (1 Bft) SW 0,00 h 0 W/m² 3,1 °C 4,6 °C 4,9 km/h (1 Bft)
01.12.2025 03:00 21,7 °C 3,9 °C 55 % 89 % 1017,5 hPa 0,0 l/m² 6,3 km/h (2 Bft) SW 0,00 h 0 W/m² 2,4 °C 3,3 °C 9,5 km/h (2 Bft)
01.12.2025 04:00 21,7 °C 3,8 °C 55 % 86 % 1017,8 hPa 0,0 l/m² 2,5 km/h (1 Bft) W-SW 0,00 h 0 W/m² 1,6 °C 3,7 °C 3,7 km/h (1 Bft)
01.12.2025 05:00 21,7 °C 2,9 °C 54 % 87 % 1018,1 hPa 0,0 l/m² 3,8 km/h (1 Bft) SW 0,00 h 0 W/m² 0,9 °C 2,8 °C 5,8 km/h (2 Bft)
01.12.2025 06:00 21,7 °C 1,9 °C 54 % 87 % 1018,4 hPa 0,0 l/m² 1,9 km/h (1 Bft) S-SW 0,00 h 0 W/m² -0,0 °C 1,9 °C 2,9 km/h (1 Bft)
01.12.2025 07:00 21,5 °C 1,8 °C 51 % 89 % 1019,0 hPa 0,0 l/m² 1,5 km/h (1 Bft) W-NW 0,00 h 0 W/m² 0,2 °C 1,8 °C 3,2 km/h (1 Bft)
01.12.2025 08:00 21,6 °C 2,6 °C 51 % 90 % 1019,8 hPa 0,0 l/m² 2,1 km/h (1 Bft) W-NW 0,00 h 18 W/m² 1,2 °C 2,6 °C 4,3 km/h (1 Bft)
01.12.2025 09:00 21,6 °C 3,5 °C 52 % 90 % 1020,0 hPa 0,0 l/m² 5,3 km/h (1 Bft) S-SW 0,48 h 52 W/m² 1,9 °C 2,4 °C 7,8 km/h (2 Bft)
01.12.2025 10:00 21,5 °C 4,3 °C 52 % 88 % 1020,3 hPa 0,0 l/m² 8,6 km/h (2 Bft) S-SW 1,00 h 82 W/m² 2,5 °C 2,3 °C 12,2 km/h (2 Bft)
01.12.2025 11:00 21,5 °C 5,0 °C 52 % 87 % 1019,9 hPa 0,0 l/m² 10,2 km/h (2 Bft) SW 1,02 h 114 W/m² 3,0 °C 2,0 °C 14,4 km/h (3 Bft)
01.12.2025 12:00 21,5 °C 5,6 °C 52 % 85 % 1019,5 hPa 0,0 l/m² 9,7 km/h (2 Bft) S-SW 1,00 h 143 W/m² 3,4 °C 3,0 °C 13,5 km/h (3 Bft)
01.12.2025 13:00 21,6 °C 6,9 °C 52 % 80 % 1018,8 hPa 0,0 l/m² 11,0 km/h (2 Bft) S 1,00 h 250 W/m² 3,8 °C 3,6 °C 15,0 km/h (3 Bft)
01.12.2025 14:00 21,7 °C 6,8 °C 52 % 77 % 1018,3 hPa 0,0 l/m² 10,3 km/h (2 Bft) S 1,00 h 128 W/m² 3,0 °C 3,9 °C 14,6 km/h (3 Bft)
01.12.2025 15:00 21,7 °C 5,9 °C 52 % 78 % 1018,0 hPa 0,0 l/m² 1,5 km/h (1 Bft) S-SO 0,27 h 34 W/m² 2,3 °C 5,8 °C 3,2 km/h (1 Bft)
01.12.2025 16:00 21,3 °C 3,7 °C 47 % 81 % 1017,8 hPa 0,0 l/m² 1,9 km/h (1 Bft) O-SO 0,00 h 5 W/m² 0,7 °C 3,7 °C 3,4 km/h (1 Bft)
01.12.2025 17:00 21,4 °C 2,7 °C 50 % 82 % 1018,0 hPa 0,0 l/m² 2,9 km/h (1 Bft) SO 0,00 h 0 W/m² -0,0 °C 2,7 °C 4,9 km/h (1 Bft)
01.12.2025 18:00 21,5 °C 2,0 °C 51 % 82 % 1018,0 hPa 0,0 l/m² 3,4 km/h (1 Bft) SO 0,00 h 0 W/m² -0,7 °C 2,0 °C 6,1 km/h (2 Bft)
01.12.2025 19:00 21,4 °C 1,5 °C 52 % 83 % 1017,7 hPa 0,0 l/m² 4,9 km/h (1 Bft) S-SO 0,00 h 0 W/m² -1,0 °C 1,1 °C 7,9 km/h (2 Bft)
01.12.2025 20:00 21,5 °C 1,1 °C 52 % 84 % 1017,3 hPa 0,0 l/m² 4,0 km/h (1 Bft) SO 0,00 h 0 W/m² -1,3 °C 0,9 °C 6,6 km/h (2 Bft)
01.12.2025 21:00 21,8 °C 0,5 °C 52 % 85 % 1017,0 hPa 0,0 l/m² 0,0 km/h (0 Bft) S-SO 0,00 h 0 W/m² -1,7 °C 0,5 °C 0,0 km/h (0 Bft)
01.12.2025 22:00 21,8 °C -0,3 °C 52 % 86 % 1016,7 hPa 0,0 l/m² 0,0 km/h (0 Bft) S-SO 0,00 h 0 W/m² -2,4 °C -0,3 °C 0,0 km/h (0 Bft)
01.12.2025 23:00 21,7 °C -1,2 °C 52 % 87 % 1016,5 hPa 0,0 l/m² 0,0 km/h (0 Bft) O 0,00 h 0 W/m² -3,1 °C -1,2 °C 0,0 km/h (0 Bft)
02.12.2025 00:00 21,7 °C -1,5 °C 52 % 89 % 1016,1 hPa 0,0 l/m² 0,6 km/h (0 Bft) O-NO 0,00 h 0 W/m² -3,0 °C -1,5 °C 1,5 km/h (1 Bft)
02.12.2025 01:00 21,7 °C -1,7 °C 51 % 90 % 1015,7 hPa 0,0 l/m² 0,1 km/h (0 Bft) O-NO 0,00 h 0 W/m² -3,1 °C -1,7 °C 0,5 km/h (0 Bft)
02.12.2025 02:00 21,7 °C -1,6 °C 51 % 90 % 1015,4 hPa 0,0 l/m² 1,8 km/h (1 Bft) O 0,00 h 0 W/m² -3,0 °C -1,6 °C 3,1 km/h (1 Bft)
02.12.2025 03:00 21,7 °C -0,5 °C 51 % 92 % 1015,1 hPa 0,0 l/m² 7,2 km/h (2 Bft) SO 0,00 h 0 W/m² -1,6 °C -1,8 °C 11,9 km/h (2 Bft)
02.12.2025 04:00 21,7 °C 0,2 °C 51 % 91 % 1014,9 hPa 0,0 l/m² 2,7 km/h (1 Bft) O-SO 0,00 h 0 W/m² -1,1 °C 0,2 °C 6,0 km/h (2 Bft)
02.12.2025 05:00 21,8 °C 0,3 °C 51 % 91 % 1014,6 hPa 0,0 l/m² 3,1 km/h (1 Bft) SO 0,00 h 0 W/m² -1,0 °C 0,3 °C 6,1 km/h (2 Bft)
02.12.2025 06:00 21,8 °C 1,4 °C 51 % 91 % 1014,3 hPa 0,0 l/m² 4,0 km/h (1 Bft) O-SO 0,00 h 0 W/m² 0,1 °C 1,3 °C 8,3 km/h (2 Bft)
02.12.2025 07:00 21,7 °C 2,0 °C 49 % 90 % 1014,3 hPa 0,0 l/m² 4,9 km/h (1 Bft) O-SO 0,00 h 0 W/m² 0,6 °C 1,5 °C 8,4 km/h (2 Bft)
02.12.2025 08:00 21,7 °C 2,4 °C 49 % 90 % 1014,7 hPa 0,0 l/m² 0,6 km/h (0 Bft) SO 0,00 h 15 W/m² 0,9 °C 2,4 °C 1,2 km/h (1 Bft)
02.12.2025 09:00 21,8 °C 3,4 °C 49 % 90 % 1014,8 hPa 0,0 l/m² 6,2 km/h (2 Bft) S-SO 0,73 h 85 W/m² 2,0 °C 2,9 °C 9,9 km/h (2 Bft)
02.12.2025 10:00 22,0 °C 5,2 °C 49 % 87 % 1014,8 hPa 0,0 l/m² 8,3 km/h (2 Bft) S-SO 1,00 h 231 W/m² 3,2 °C 3,6 °C 12,4 km/h (2 Bft)
02.12.2025 11:00 22,3 °C 7,0 °C 49 % 80 % 1014,1 hPa 0,0 l/m² 10,4 km/h (2 Bft) S-SO 1,00 h 293 W/m² 3,9 °C 4,2 °C 15,4 km/h (3 Bft)
02.12.2025 12:00 22,5 °C 7,8 °C 49 % 78 % 1013,9 hPa 0,0 l/m² 14,0 km/h (3 Bft) S 0,98 h 297 W/m² 4,1 °C 3,0 °C 19,6 km/h (3 Bft)
02.12.2025 13:00 22,4 °C 8,4 °C 49 % 76 % 1013,6 hPa 0,0 l/m² 12,8 km/h (3 Bft) S 1,02 h 265 W/m² 4,3 °C 4,3 °C 17,4 km/h (3 Bft)
02.12.2025 14:00 22,3 °C 8,3 °C 49 % 74 % 1013,4 hPa 0,0 l/m² 9,5 km/h (2 Bft) S 1,00 h 143 W/m² 4,0 °C 5,7 °C 13,9 km/h (3 Bft)
02.12.2025 15:00 22,1 °C 7,4 °C 50 % 76 % 1013,4 hPa 0,0 l/m² 0,5 km/h (0 Bft) SO 0,20 h 32 W/m² 3,5 °C 7,4 °C 1,1 km/h (1 Bft)
02.12.2025 16:00 21,9 °C 5,6 °C 50 % 81 % 1013,5 hPa 0,0 l/m² 0,2 km/h (0 Bft) O-SO 0,00 h 0 W/m² 2,5 °C 5,6 °C 0,5 km/h (0 Bft)
02.12.2025 17:00 21,8 °C 5,6 °C 50 % 83 % 1013,6 hPa 0,0 l/m² 1,3 km/h (1 Bft) O 0,00 h 0 W/m² 3,0 °C 5,6 °C 2,4 km/h (1 Bft)
02.12.2025 18:00 21,8 °C 5,8 °C 49 % 83 % 1014,1 hPa 0,0 l/m² 0,0 km/h (0 Bft) O 0,00 h 0 W/m² 3,2 °C 5,8 °C 0,0 km/h (0 Bft)
02.12.2025 19:00 21,9 °C 5,8 °C 51 % 83 % 1014,2 hPa 0,0 l/m² 0,1 km/h (0 Bft) O 0,00 h 0 W/m² 3,2 °C 5,8 °C 0,2 km/h (0 Bft)
02.12.2025 20:00 22,0 °C 5,8 °C 52 % 84 % 1014,6 hPa 0,0 l/m² 0,9 km/h (0 Bft) O-SO 0,00 h 0 W/m² 3,3 °C 5,8 °C 3,1 km/h (1 Bft)
02.12.2025 21:00 22,2 °C 5,8 °C 52 % 84 % 1014,4 hPa 0,0 l/m² 2,8 km/h (1 Bft) SO 0,00 h 0 W/m² 3,3 °C 5,8 °C 5,9 km/h (2 Bft)
02.12.2025 22:00 22,1 °C 6,0 °C 52 % 84 % 1014,4 hPa 0,0 l/m² 1,1 km/h (1 Bft) SO 0,00 h 0 W/m² 3,5 °C 6,0 °C 3,9 km/h (1 Bft)
02.12.2025 23:00 21,9 °C 5,8 °C 52 % 84 % 1014,6 hPa 0,0 l/m² 0,0 km/h (0 Bft) SO 0,00 h 0 W/m² 3,4 °C 5,8 °C 0,2 km/h (0 Bft)
03.12.2025 00:00 21,8 °C 5,8 °C 52 % 85 % 1014,6 hPa 0,0 l/m² 0,1 km/h (0 Bft) S-SO 0,00 h 0 W/m² 3,4 °C 5,8 °C 0,3 km/h (0 Bft)
03.12.2025 01:00 21,8 °C 5,5 °C 52 % 86 % 1014,4 hPa 0,0 l/m² 0,0 km/h (0 Bft) S-SO 0,00 h 0 W/m² 3,3 °C 5,5 °C 0,0 km/h (0 Bft)
03.12.2025 02:00 21,8 °C 5,2 °C 52 % 86 % 1014,2 hPa 0,0 l/m² 0,1 km/h (0 Bft) SO 0,00 h 0 W/m² 3,0 °C 5,2 °C 0,1 km/h (0 Bft)
03.12.2025 03:00 21,8 °C 4,9 °C 52 % 87 % 1013,9 hPa 0,0 l/m² 0,0 km/h (0 Bft) SO 0,00 h 0 W/m² 2,9 °C 4,9 °C 0,1 km/h (0 Bft)
03.12.2025 04:00 21,7 °C 4,8 °C 52 % 86 % 1013,9 hPa 0,0 l/m² 0,0 km/h (0 Bft) SO 0,00 h 0 W/m² 2,8 °C 4,8 °C 0,2 km/h (0 Bft)
03.12.2025 05:00 21,8 °C 4,5 °C 52 % 86 % 1013,8 hPa 0,0 l/m² 0,2 km/h (0 Bft) SO 0,00 h 0 W/m² 2,4 °C 4,5 °C 0,3 km/h (0 Bft)
03.12.2025 06:00 21,8 °C 4,2 °C 52 % 87 % 1014,0 hPa 0,0 l/m² 0,0 km/h (0 Bft) O-SO 0,00 h 0 W/m² 2,3 °C 4,2 °C 0,0 km/h (0 Bft)
03.12.2025 07:00 21,6 °C 4,0 °C 49 % 87 % 1014,1 hPa 0,0 l/m² 0,0 km/h (0 Bft) O-SO 0,00 h 0 W/m² 2,1 °C 4,0 °C 0,0 km/h (0 Bft)
03.12.2025 08:00 21,7 °C 3,7 °C 50 % 87 % 1014,3 hPa 0,0 l/m² 0,0 km/h (0 Bft) O-SO 0,00 h 18 W/m² 1,8 °C 3,7 °C 0,2 km/h (0 Bft)
03.12.2025 09:00 21,7 °C 3,9 °C 50 % 87 % 1014,3 hPa 0,0 l/m² 0,0 km/h (0 Bft) SO 0,33 h 47 W/m² 1,9 °C 3,9 °C 0,2 km/h (0 Bft)
03.12.2025 10:00 21,7 °C 4,4 °C 50 % 86 % 1014,2 hPa 0,0 l/m² 2,8 km/h (1 Bft) SO 1,00 h 72 W/m² 2,2 °C 4,4 °C 4,5 km/h (1 Bft)
03.12.2025 11:00 21,6 °C 4,8 °C 50 % 84 % 1014,0 hPa 0,0 l/m² 4,2 km/h (1 Bft) S-SO 1,00 h 90 W/m² 2,3 °C 4,6 °C 6,3 km/h (2 Bft)
03.12.2025 12:00 21,6 °C 5,1 °C 50 % 83 % 1013,7 hPa 0,0 l/m² 4,3 km/h (1 Bft) S-SO 1,00 h 82 W/m² 2,5 °C 5,1 °C 6,9 km/h (2 Bft)
03.12.2025 13:00 21,6 °C 5,2 °C 50 % 82 % 1013,5 hPa 0,0 l/m² 3,2 km/h (1 Bft) SO 0,83 h 56 W/m² 2,5 °C 5,2 °C 5,1 km/h (1 Bft)
03.12.2025 14:00 21,7 °C 5,3 °C 50 % 82 % 1013,3 hPa 0,0 l/m² 4,7 km/h (1 Bft) SO 0,00 h 37 W/m² 2,4 °C 5,2 °C 7,4 km/h (2 Bft)
03.12.2025 15:00 21,7 °C 5,1 °C 50 % 81 % 1013,2 hPa 0,0 l/m² 1,7 km/h (1 Bft) SO 0,00 h 25 W/m² 2,1 °C 5,1 °C 3,7 km/h (1 Bft)
03.12.2025 16:00 21,6 °C 4,4 °C 50 % 83 % 1013,2 hPa 0,0 l/m² 0,3 km/h (0 Bft) O-SO 0,00 h 0 W/m² 1,6 °C 4,4 °C 0,6 km/h (0 Bft)
03.12.2025 17:00 21,6 °C 3,4 °C 50 % 86 % 1013,3 hPa 0,0 l/m² 0,0 km/h (0 Bft) O-SO 0,00 h 0 W/m² 1,3 °C 3,4 °C 0,0 km/h (0 Bft)
03.12.2025 18:00 21,7 °C 3,2 °C 51 % 88 % 1013,3 hPa 0,0 l/m² 0,0 km/h (0 Bft) O-SO 0,00 h 0 W/m² 1,4 °C 3,2 °C 0,0 km/h (0 Bft)
03.12.2025 19:00 21,7 °C 2,9 °C 50 % 88 % 1013,2 hPa 0,0 l/m² 0,0 km/h (0 Bft) O-SO 0,00 h 0 W/m² 1,2 °C 2,9 °C 0,0 km/h (0 Bft)
03.12.2025 20:00 21,7 °C 2,9 °C 50 % 89 % 1013,2 hPa 0,0 l/m² 0,0 km/h (0 Bft) O-SO 0,00 h 0 W/m² 1,2 °C 2,9 °C 0,0 km/h (0 Bft)
03.12.2025 21:00 21,6 °C 2,8 °C 50 % 89 % 1013,2 hPa 0,0 l/m² 0,0 km/h (0 Bft) O-SO 0,00 h 0 W/m² 1,2 °C 2,8 °C 0,0 km/h (0 Bft)
03.12.2025 22:00 21,7 °C 2,8 °C 50 % 89 % 1013,4 hPa 0,0 l/m² 0,1 km/h (0 Bft) O-NO 0,00 h 0 W/m² 1,2 °C 2,8 °C 0,4 km/h (0 Bft)
03.12.2025 23:00 21,6 °C 2,7 °C 51 % 88 % 1013,5 hPa 0,0 l/m² 0,1 km/h (0 Bft) SO 0,00 h 0 W/m² 1,0 °C 2,7 °C 0,2 km/h (0 Bft)
04.12.2025 00:00 21,5 °C 2,5 °C 51 % 88 % 1013,4 hPa 0,0 l/m² 0,5 km/h (0 Bft) O-SO 0,00 h 0 W/m² 0,8 °C 2,5 °C 1,6 km/h (1 Bft)
04.12.2025 01:00 21,5 °C 2,3 °C 51 % 88 % 1013,0 hPa 0,0 l/m² 0,1 km/h (0 Bft) O-SO 0,00 h 0 W/m² 0,6 °C 2,3 °C 0,2 km/h (0 Bft)
04.12.2025 02:00 21,5 °C 2,2 °C 51 % 88 % 1012,8 hPa 0,0 l/m² 1,7 km/h (1 Bft) SO 0,00 h 0 W/m² 0,4 °C 2,2 °C 2,9 km/h (1 Bft)
04.12.2025 03:00 21,4 °C 2,1 °C 51 % 88 % 1012,4 hPa 0,0 l/m² 0,7 km/h (0 Bft) SO 0,00 h 0 W/m² 0,4 °C 2,1 °C 1,9 km/h (1 Bft)
04.12.2025 04:00 21,4 °C 1,9 °C 51 % 87 % 1012,2 hPa 0,0 l/m² 2,1 km/h (1 Bft) SO 0,00 h 0 W/m² 0,1 °C 1,9 °C 4,1 km/h (1 Bft)
04.12.2025 05:00 21,4 °C 1,2 °C 51 % 86 % 1012,0 hPa 0,0 l/m² 2,1 km/h (1 Bft) SO 0,00 h 0 W/m² -0,8 °C 1,2 °C 4,2 km/h (1 Bft)
04.12.2025 06:00 21,4 °C 0,3 °C 50 % 87 % 1011,9 hPa 0,0 l/m² 0,2 km/h (0 Bft) SO 0,00 h 0 W/m² -1,6 °C 0,3 °C 0,7 km/h (0 Bft)
04.12.2025 07:00 21,3 °C -0,2 °C 49 % 88 % 1011,8 hPa 0,0 l/m² 0,8 km/h (0 Bft) SO 0,00 h 0 W/m² -1,9 °C -0,2 °C 2,1 km/h (1 Bft)
04.12.2025 08:00 21,4 °C -0,3 °C 49 % 89 % 1011,9 hPa 0,0 l/m² 2,2 km/h (1 Bft) S-SO 0,07 h 26 W/m² -1,9 °C -0,3 °C 4,7 km/h (1 Bft)
04.12.2025 09:00 21,6 °C 0,3 °C 49 % 90 % 1011,9 hPa 0,0 l/m² 6,4 km/h (2 Bft) SO 1,00 h 90 W/m² -1,1 °C -0,0 °C 9,4 km/h (2 Bft)
04.12.2025 10:00 21,7 °C 1,4 °C 48 % 89 % 1011,5 hPa 0,0 l/m² 7,4 km/h (2 Bft) S-SO 1,00 h 135 W/m² -0,2 °C 0,2 °C 10,9 km/h (2 Bft)
04.12.2025 11:00 21,7 °C 2,6 °C 46 % 87 % 1011,1 hPa 0,0 l/m² 10,3 km/h (2 Bft) S 1,00 h 199 W/m² 0,6 °C -0,7 °C 14,6 km/h (3 Bft)
04.12.2025 12:00 21,8 °C 3,9 °C 45 % 82 % 1010,6 hPa 0,0 l/m² 9,8 km/h (2 Bft) S-SO 1,00 h 253 W/m² 1,2 °C 1,0 °C 14,1 km/h (3 Bft)
04.12.2025 13:00 21,7 °C 3,7 °C 47 % 82 % 1009,9 hPa 0,0 l/m² 7,2 km/h (2 Bft) SO 1,00 h 143 W/m² 1,0 °C 2,7 °C 10,7 km/h (2 Bft)
04.12.2025 14:00 21,6 °C 4,2 °C 48 % 82 % 1009,5 hPa 0,0 l/m² 5,9 km/h (2 Bft) SO 1,00 h 133 W/m² 1,4 °C 3,7 °C 9,2 km/h (2 Bft)
04.12.2025 15:00 21,5 °C 4,2 °C 46 % 81 % 1009,5 hPa 0,0 l/m² 1,1 km/h (0 Bft) SO 0,25 h 29 W/m² 1,2 °C 4,2 °C 2,0 km/h (1 Bft)
04.12.2025 16:00 21,4 °C 2,1 °C 46 % 84 % 1009,3 hPa 0,0 l/m² 1,0 km/h (0 Bft) O 0,00 h 5 W/m² -0,4 °C 2,1 °C 1,4 km/h (1 Bft)
04.12.2025 17:00 21,5 °C 0,6 °C 47 % 87 % 1009,4 hPa 0,0 l/m² 0,4 km/h (0 Bft) O 0,00 h 0 W/m² -1,4 °C 0,6 °C 1,0 km/h (0 Bft)
04.12.2025 18:00 21,4 °C 0,3 °C 48 % 89 % 1009,5 hPa 0,0 l/m² 0,0 km/h (0 Bft) O-SO 0,00 h 0 W/m² -1,3 °C 0,3 °C 0,0 km/h (0 Bft)
04.12.2025 19:00 21,5 °C -0,2 °C 50 % 89 % 1009,5 hPa 0,0 l/m² 0,0 km/h (0 Bft) O-SO 0,00 h 0 W/m² -1,8 °C -0,2 °C 0,0 km/h (0 Bft)
04.12.2025 20:00 21,7 °C -0,8 °C 48 % 90 % 1009,3 hPa 0,0 l/m² 0,0 km/h (0 Bft) O-SO 0,00 h 0 W/m² -2,2 °C -0,8 °C 0,0 km/h (0 Bft)
04.12.2025 21:00 21,9 °C -1,3 °C 49 % 90 % 1009,3 hPa 0,0 l/m² 0,0 km/h (0 Bft) O-SO 0,00 h 0 W/m² -2,7 °C -1,3 °C 0,0 km/h (0 Bft)
04.12.2025 22:00 22,1 °C -1,5 °C 49 % 90 % 1009,3 hPa 0,0 l/m² 0,0 km/h (0 Bft) O-SO 0,00 h 0 W/m² -2,9 °C -1,5 °C 0,0 km/h (0 Bft)
04.12.2025 23:00 21,9 °C -1,3 °C 49 % 91 % 1009,1 hPa 0,0 l/m² 0,0 km/h (0 Bft) O-SO 0,00 h 0 W/m² -2,6 °C -1,3 °C 0,0 km/h (0 Bft)
05.12.2025 00:00 21,9 °C -0,9 °C 49 % 91 % 1009,1 hPa 0,0 l/m² 0,1 km/h (0 Bft) O 0,00 h 0 W/m² -2,1 °C -0,9 °C 0,1 km/h (0 Bft)
05.12.2025 01:00 21,9 °C -0,7 °C 49 % 92 % 1009,3 hPa 0,0 l/m² 0,0 km/h (0 Bft) O 0,00 h 0 W/m² -1,8 °C -0,7 °C 0,0 km/h (0 Bft)
05.12.2025 02:00 21,8 °C -0,6 °C 49 % 92 % 1009,3 hPa 0,0 l/m² 0,0 km/h (0 Bft) O-SO 0,00 h 0 W/m² -1,7 °C -0,6 °C 0,0 km/h (0 Bft)
05.12.2025 03:00 21,9 °C -0,5 °C 49 % 92 % 1009,0 hPa 0,0 l/m² 0,0 km/h (0 Bft) O-SO 0,00 h 0 W/m² -1,6 °C -0,5 °C 0,0 km/h (0 Bft)
05.12.2025 04:00 21,9 °C -0,3 °C 49 % 92 % 1009,2 hPa 0,0 l/m² 0,0 km/h (0 Bft) O-SO 0,00 h 0 W/m² -1,5 °C -0,3 °C 0,1 km/h (0 Bft)
05.12.2025 05:00 21,8 °C -0,2 °C 49 % 92 % 1009,5 hPa 0,0 l/m² 0,0 km/h (0 Bft) O 0,00 h 0 W/m² -1,3 °C -0,2 °C 0,0 km/h (0 Bft)
05.12.2025 06:00 21,8 °C -0,0 °C 49 % 93 % 1009,9 hPa 0,0 l/m² 0,0 km/h (0 Bft) O 0,00 h 0 W/m² -1,0 °C -0,0 °C 0,0 km/h (0 Bft)
05.12.2025 07:00 21,8 °C 0,2 °C 49 % 93 % 1010,2 hPa 0,0 l/m² 0,0 km/h (0 Bft) O-SO 0,00 h 0 W/m² -0,8 °C 0,2 °C 0,0 km/h (0 Bft)
05.12.2025 08:00 21,8 °C 0,4 °C 49 % 93 % 1010,7 hPa 0,0 l/m² 0,0 km/h (0 Bft) S 0,00 h 10 W/m² -0,6 °C 0,4 °C 0,0 km/h (0 Bft)
05.12.2025 09:00 21,6 °C 0,5 °C 47 % 93 % 1011,0 hPa 0,0 l/m² 0,0 km/h (0 Bft) S 0,28 h 37 W/m² -0,5 °C 0,5 °C 0,0 km/h (0 Bft)
05.12.2025 10:00 21,5 °C 1,2 °C 47 % 93 % 1011,6 hPa 0,0 l/m² 0,0 km/h (0 Bft) S 1,00 h 88 W/m² 0,2 °C 1,2 °C 0,0 km/h (0 Bft)
05.12.2025 11:00 21,4 °C 2,1 °C 47 % 93 % 1011,4 hPa 0,0 l/m² 0,0 km/h (0 Bft) SW 1,00 h 100 W/m² 1,1 °C 2,1 °C 0,2 km/h (0 Bft)
05.12.2025 12:00 21,4 °C 2,7 °C 48 % 93 % 1011,7 hPa 0,0 l/m² 0,4 km/h (0 Bft) SW 0,98 h 71 W/m² 1,6 °C 2,7 °C 0,9 km/h (0 Bft)
05.12.2025 13:00 21,4 °C 3,1 °C 48 % 92 % 1012,0 hPa 0,0 l/m² 0,0 km/h (0 Bft) SW 0,48 h 56 W/m² 2,0 °C 3,1 °C 0,1 km/h (0 Bft)
05.12.2025 14:00 21,4 °C 3,4 °C 48 % 91 % 1012,1 hPa 0,0 l/m² 0,0 km/h (0 Bft) SW 0,58 h 55 W/m² 2,1 °C 3,4 °C 0,0 km/h (0 Bft)
05.12.2025 15:00 21,4 °C 3,3 °C 47 % 90 % 1012,7 hPa 0,0 l/m² 5,9 km/h (2 Bft) SW 0,17 h 32 W/m² 1,7 °C 2,7 °C 8,7 km/h (2 Bft)
05.12.2025 16:00 21,4 °C 2,6 °C 49 % 89 % 1013,4 hPa 0,0 l/m² 5,1 km/h (1 Bft) SW 0,00 h 5 W/m² 1,0 °C 1,5 °C 7,2 km/h (2 Bft)
05.12.2025 17:00 21,5 °C 2,2 °C 50 % 90 % 1013,7 hPa 0,0 l/m² 0,0 km/h (0 Bft) W-SW 0,00 h 0 W/m² 0,7 °C 2,2 °C 0,0 km/h (0 Bft)
05.12.2025 18:00 21,4 °C 1,8 °C 49 % 90 % 1013,9 hPa 0,0 l/m² 0,0 km/h (0 Bft) W-SW 0,00 h 0 W/m² 0,3 °C 1,8 °C 0,0 km/h (0 Bft)
05.12.2025 19:00 21,5 °C 1,8 °C 49 % 91 % 1014,1 hPa 0,0 l/m² 1,5 km/h (1 Bft) SW 0,00 h 0 W/m² 0,5 °C 1,8 °C 2,2 km/h (1 Bft)
05.12.2025 20:00 21,8 °C 1,5 °C 50 % 91 % 1014,3 hPa 0,0 l/m² 0,0 km/h (0 Bft) S 0,00 h 0 W/m² 0,2 °C 1,5 °C 0,2 km/h (0 Bft)
05.12.2025 21:00 22,2 °C 0,7 °C 51 % 91 % 1014,5 hPa 0,0 l/m² 0,3 km/h (0 Bft) S 0,00 h 0 W/m² -0,6 °C 0,7 °C 0,7 km/h (0 Bft)
05.12.2025 22:00 22,2 °C 1,0 °C 51 % 92 % 1014,2 hPa 0,0 l/m² 0,3 km/h (0 Bft) S-SO 0,00 h 0 W/m² -0,2 °C 1,0 °C 0,7 km/h (0 Bft)
05.12.2025 23:00 21,8 °C 1,5 °C 51 % 92 % 1014,1 hPa 0,0 l/m² 0,0 km/h (0 Bft) S-SO 0,00 h 0 W/m² 0,4 °C 1,5 °C 0,1 km/h (0 Bft)
06.12.2025 00:00 21,7 °C 1,8 °C 51 % 92 % 1014,0 hPa 0,0 l/m² 0,0 km/h (0 Bft) S-SO 0,00 h 0 W/m² 0,7 °C 1,8 °C 0,0 km/h (0 Bft)
06.12.2025 01:00 21,7 °C 2,2 °C 51 % 93 % 1013,5 hPa 0,0 l/m² 0,0 km/h (0 Bft) SO 0,00 h 0 W/m² 1,1 °C 2,2 °C 0,0 km/h (0 Bft)
06.12.2025 02:00 21,6 °C 2,2 °C 51 % 92 % 1013,2 hPa 0,0 l/m² 0,0 km/h (0 Bft) SO 0,00 h 0 W/m² 1,0 °C 2,2 °C 0,0 km/h (0 Bft)
06.12.2025 03:00 21,5 °C 1,4 °C 51 % 92 % 1012,5 hPa 0,0 l/m² 0,7 km/h (0 Bft) O-NO 0,00 h 0 W/m² 0,3 °C 1,4 °C 1,3 km/h (1 Bft)
06.12.2025 04:00 21,5 °C 0,6 °C 50 % 91 % 1012,2 hPa 0,0 l/m² 0,0 km/h (0 Bft) O-NO 0,00 h 0 W/m² -0,7 °C 0,6 °C 0,0 km/h (0 Bft)
06.12.2025 05:00 21,4 °C -0,2 °C 50 % 91 % 1012,0 hPa 0,0 l/m² 0,0 km/h (0 Bft) O-NO 0,00 h 0 W/m² -1,4 °C -0,2 °C 0,0 km/h (0 Bft)
06.12.2025 06:00 21,5 °C -0,6 °C 50 % 92 % 1011,7 hPa 0,0 l/m² 0,2 km/h (0 Bft) O-NO 0,00 h 0 W/m² -1,8 °C -0,6 °C 0,4 km/h (0 Bft)
06.12.2025 07:00 21,6 °C 0,1 °C 50 % 93 % 1010,8 hPa 0,0 l/m² 9,7 km/h (2 Bft) O 0,00 h 0 W/m² -1,0 °C -3,1 °C 12,5 km/h (2 Bft)
06.12.2025 08:00 21,6 °C 1,0 °C 50 % 93 % 1010,6 hPa 0,0 l/m² 10,9 km/h (2 Bft) O 0,00 h 11 W/m² -0,1 °C -3,0 °C 13,7 km/h (3 Bft)
06.12.2025 09:00 21,7 °C 2,2 °C 51 % 92 % 1010,4 hPa 0,2 l/m² 12,3 km/h (2 Bft) O-SO 0,37 h 49 W/m² 1,1 °C -2,7 °C 15,6 km/h (3 Bft)
06.12.2025 10:00 21,6 °C 3,3 °C 49 % 90 % 1010,0 hPa 0,0 l/m² 11,2 km/h (2 Bft) O-SO 1,00 h 87 W/m² 1,8 °C -0,6 °C 14,9 km/h (3 Bft)
06.12.2025 11:00 21,6 °C 4,4 °C 48 % 87 % 1009,3 hPa 0,0 l/m² 12,9 km/h (3 Bft) O-SO 1,00 h 115 W/m² 2,5 °C -0,4 °C 16,8 km/h (3 Bft)
06.12.2025 12:00 21,6 °C 5,2 °C 50 % 85 % 1008,5 hPa 0,0 l/m² 11,6 km/h (2 Bft) SO 0,98 h 79 W/m² 2,9 °C 1,4 °C 16,2 km/h (3 Bft)
06.12.2025 13:00 21,6 °C 6,4 °C 51 % 83 % 1008,1 hPa 0,0 l/m² 12,1 km/h (2 Bft) S-SO 0,97 h 106 W/m² 3,7 °C 2,4 °C 17,0 km/h (3 Bft)
06.12.2025 14:00 21,6 °C 6,4 °C 50 % 81 % 1007,8 hPa 0,0 l/m² 15,0 km/h (3 Bft) S-SO 0,70 h 77 W/m² 3,4 °C 1,0 °C 21,9 km/h (4 Bft)
06.12.2025 15:00 21,7 °C 6,1 °C 51 % 81 % 1008,0 hPa 0,0 l/m² 6,5 km/h (2 Bft) SO 0,00 h 12 W/m² 3,1 °C 5,3 °C 10,6 km/h (2 Bft)
06.12.2025 16:00 21,5 °C 5,9 °C 51 % 82 % 1008,2 hPa 0,0 l/m² 5,0 km/h (1 Bft) SO 0,00 h 0 W/m² 3,0 °C 5,3 °C 7,8 km/h (2 Bft)
06.12.2025 17:00 21,4 °C 6,0 °C 52 % 83 % 1008,5 hPa 0,0 l/m² 6,9 km/h (2 Bft) S-SO 0,00 h 0 W/m² 3,3 °C 4,8 °C 11,2 km/h (2 Bft)
06.12.2025 18:00 21,4 °C 6,0 °C 52 % 84 % 1008,5 hPa 0,0 l/m² 10,7 km/h (2 Bft) S-SO 0,00 h 0 W/m² 3,4 °C 2,8 °C 15,0 km/h (3 Bft)
06.12.2025 19:00 21,5 °C 5,8 °C 52 % 84 % 1008,6 hPa 0,0 l/m² 8,5 km/h (2 Bft) SO 0,00 h 0 W/m² 3,3 °C 4,0 °C 12,9 km/h (3 Bft)
06.12.2025 20:00 21,8 °C 5,7 °C 52 % 86 % 1008,9 hPa 0,0 l/m² 7,5 km/h (2 Bft) S-SO 0,00 h 0 W/m² 3,5 °C 4,1 °C 11,4 km/h (2 Bft)
06.12.2025 21:00 22,3 °C 5,7 °C 52 % 86 % 1008,8 hPa 0,0 l/m² 8,3 km/h (2 Bft) S-SO 0,00 h 0 W/m² 3,6 °C 4,1 °C 12,5 km/h (2 Bft)
06.12.2025 22:00 22,6 °C 5,9 °C 52 % 87 % 1008,5 hPa 0,0 l/m² 8,5 km/h (2 Bft) S 0,00 h 0 W/m² 3,9 °C 3,9 °C 13,8 km/h (3 Bft)
06.12.2025 23:00 22,4 °C 6,2 °C 52 % 88 % 1008,4 hPa 0,0 l/m² 2,8 km/h (1 Bft) S-SW 0,00 h 0 W/m² 4,3 °C 6,1 °C 5,9 km/h (2 Bft)
07.12.2025 00:00 22,1 °C 6,4 °C 51 % 88 % 1008,3 hPa 0,0 l/m² 2,7 km/h (1 Bft) O 0,00 h 0 W/m² 4,5 °C 6,3 °C 4,7 km/h (1 Bft)
07.12.2025 01:00 21,9 °C 6,2 °C 51 % 88 % 1008,1 hPa 0,0 l/m² 3,2 km/h (1 Bft) O-NO 0,00 h 0 W/m² 4,3 °C 6,1 °C 6,6 km/h (2 Bft)
07.12.2025 02:00 21,8 °C 6,0 °C 52 % 89 % 1008,5 hPa 0,0 l/m² 3,4 km/h (1 Bft) O-SO 0,00 h 0 W/m² 4,3 °C 5,8 °C 5,8 km/h (2 Bft)
07.12.2025 03:00 21,7 °C 5,8 °C 52 % 89 % 1008,6 hPa 0,0 l/m² 0,1 km/h (0 Bft) S 0,00 h 0 W/m² 4,2 °C 5,8 °C 0,4 km/h (0 Bft)
07.12.2025 04:00 21,7 °C 5,9 °C 51 % 90 % 1008,7 hPa 0,0 l/m² 0,1 km/h (0 Bft) S-SO 0,00 h 0 W/m² 4,4 °C 5,9 °C 0,5 km/h (0 Bft)
07.12.2025 05:00 21,7 °C 5,9 °C 51 % 90 % 1008,9 hPa 0,0 l/m² 0,1 km/h (0 Bft) S-SO 0,00 h 0 W/m² 4,4 °C 5,9 °C 0,3 km/h (0 Bft)
07.12.2025 06:00 21,6 °C 6,4 °C 51 % 91 % 1009,0 hPa 0,0 l/m² 1,9 km/h (1 Bft) S-SO 0,00 h 0 W/m² 5,1 °C 6,3 °C 3,7 km/h (1 Bft)
07.12.2025 07:00 21,5 °C 6,9 °C 51 % 91 % 1009,5 hPa 0,4 l/m² 0,0 km/h (0 Bft) SO 0,00 h 0 W/m² 5,5 °C 6,9 °C 0,0 km/h (0 Bft)
07.12.2025 08:00 21,6 °C 6,8 °C 52 % 91 % 1009,9 hPa 0,4 l/m² 0,0 km/h (0 Bft) SO 0,00 h 8 W/m² 5,5 °C 6,8 °C 0,2 km/h (0 Bft)
07.12.2025 09:00 21,7 °C 7,1 °C 53 % 92 % 1010,5 hPa 0,4 l/m² 0,0 km/h (0 Bft) S-SO 0,00 h 24 W/m² 5,9 °C 7,1 °C 0,0 km/h (0 Bft)
07.12.2025 10:00 21,5 °C 7,9 °C 49 % 93 % 1010,9 hPa 0,0 l/m² 1,0 km/h (0 Bft) S 0,98 h 102 W/m² 6,8 °C 7,9 °C 2,3 km/h (1 Bft)
07.12.2025 11:00 21,5 °C 9,5 °C 49 % 92 % 1011,1 hPa 0,0 l/m² 6,7 km/h (2 Bft) S-SW 1,00 h 168 W/m² 8,4 °C 8,1 °C 9,2 km/h (2 Bft)
07.12.2025 12:00 21,6 °C 10,6 °C 50 % 87 % 1011,1 hPa 0,0 l/m² 4,2 km/h (1 Bft) W-SW 1,02 h 152 W/m² 8,5 °C 10,2 °C 7,1 km/h (2 Bft)
07.12.2025 13:00 21,7 °C 11,0 °C 52 % 83 % 1011,0 hPa 0,0 l/m² 3,2 km/h (1 Bft) W-SW 1,00 h 97 W/m² 8,3 °C 10,4 °C 5,6 km/h (2 Bft)
07.12.2025 14:00 21,7 °C 10,7 °C 52 % 82 % 1010,9 hPa 0,0 l/m² 6,2 km/h (2 Bft) SW 0,55 h 77 W/m² 7,7 °C 10,0 °C 8,5 km/h (2 Bft)
07.12.2025 15:00 21,6 °C 9,5 °C 52 % 83 % 1010,9 hPa 0,0 l/m² 0,0 km/h (0 Bft) SW 0,00 h 17 W/m² 6,7 °C 9,5 °C 0,0 km/h (0 Bft)
07.12.2025 16:00 21,5 °C 7,3 °C 52 % 84 % 1010,9 hPa 0,0 l/m² 0,0 km/h (0 Bft) W-SW 0,00 h 0 W/m² 4,9 °C 7,3 °C 0,0 km/h (0 Bft)
07.12.2025 17:00 21,4 °C 5,1 °C 52 % 86 % 1011,0 hPa 0,0 l/m² 0,0 km/h (0 Bft) W-SW 0,00 h 0 W/m² 2,9 °C 5,1 °C 0,0 km/h (0 Bft)
07.12.2025 18:00 21,4 °C 4,6 °C 52 % 89 % 1010,9 hPa 0,0 l/m² 0,0 km/h (0 Bft) O-NO 0,00 h 0 W/m² 3,0 °C 4,6 °C 0,0 km/h (0 Bft)
07.12.2025 19:00 21,4 °C 5,6 °C 52 % 92 % 1010,7 hPa 0,0 l/m² 2,5 km/h (1 Bft) O-SO 0,00 h 0 W/m² 4,4 °C 5,2 °C 3,9 km/h (1 Bft)
07.12.2025 20:00 21,7 °C 7,2 °C 51 % 92 % 1010,2 hPa 0,0 l/m² 10,2 km/h (2 Bft) O-SO 0,00 h 0 W/m² 6,0 °C 4,5 °C 14,5 km/h (3 Bft)
07.12.2025 21:00 22,1 °C 7,3 °C 52 % 91 % 1009,5 hPa 0,0 l/m² 8,5 km/h (2 Bft) O-SO 0,00 h 0 W/m² 5,9 °C 5,6 °C 12,1 km/h (2 Bft)
07.12.2025 22:00 22,2 °C 7,8 °C 52 % 91 % 1009,0 hPa 0,0 l/m² 9,4 km/h (2 Bft) SO 0,00 h 0 W/m² 6,3 °C 5,6 °C 13,3 km/h (3 Bft)
07.12.2025 23:00 21,8 °C 8,1 °C 52 % 90 % 1008,6 hPa 1,0 l/m² 7,3 km/h (2 Bft) SO 0,00 h 0 W/m² 6,7 °C 7,3 °C 11,8 km/h (2 Bft)
Min-Datum _ 05.12.25 02.12.25 04.12.25 02.12.25 06.12.25 - 07.12.25 - - - 02.12.25 06.12.25 07.12.25
_ Min-Zeit 14:22 01:51 12:00 14:15 14:28 - 19:01 - - - 00:54 07:31 19:01
Minimum _ 21,3 °C -1,8 °C 43 % 73 % 1007,6 hPa - 0,0 km/h (0 Bft) - - - -3,4 °C -6,0 °C 0,0 km/h (0 Bft)
Max-Datum _ 06.12.25 07.12.25 01.12.25 07.12.25 01.12.25 07.12.25 06.12.25 - 04.12.25 04.12.25 07.12.25 07.12.25 06.12.25
_ Max-Zeit 22:01 13:01 05:00 11:00 10:22 23:27 14:47 - 12:10 11:51 12:50 13:01 14:17
Maximum _ 22,6 °C 11,2 °C 55 % 94 % 1020,4 hPa 1,0 l/m² 23,3 km/h
S-SO (4 Bft)
- 0,17 h 355 W/m² 8,8 °C 11,2 °C 32,2 km/h
S-SO (5 Bft)
Durchschnitt _ 21,7 °C 3,6 °C 50 % 88 % 1012,7 hPa #2,6 l/m² 3,1 km/h (1 Bft) SO #36:15 h 31 W/m² 1,7 °C 2,9 °C 4,7 km/h (1 Bft)
© 2009 Mathias Hoßbach